Flight Track Log - Related Links

Times and Time Zones

All times are in EDT time to prevent confusion due to time zone crossing. See the N220MJ flight status page for this flight to view local times or setup timezone preferences in your user account.

Time Position Orientation Groundspeed Altitude Reporting Facility
EDT Latitude Longitude Course Direction KTS MPH feet Rate Location/Type
Thu 10:42:52 AM 41.8000 -87.6500 90° East 209 241 3,100  Level Chicago TRACON
Thu 10:44:15 AM 41.8075 -87.5333 85° East 230 265 4,400 1,241 Climbing Chicago Center
Thu 10:45:17 AM 41.8083 -87.4439 89° East 240 276 6,100 1,548 Climbing Chicago Center
Thu 10:46:19 AM 41.8064 -87.3589 92° East 233 268 7,600 1,355 Climbing Chicago Center
Thu 10:47:00 AM 41.7667 -87.2985 90° East  Level FlightAware Approximate
Thu 10:47:21 AM 41.8044 -87.2764 92° East 225 259 8,900  Level Chicago Center
Thu 10:48:24 AM 41.8011 -87.1922 93° East 226 260 10,000 532 Climbing Chicago Center
Thu 10:49:25 AM 41.7989 -87.0994 92° East 245 282 10,000  Level Chicago Center
Thu 10:50:27 AM 41.7931 -86.9750 94° East 275 316 10,000  Level Chicago Center
Thu 10:51:30 AM 41.7894 -86.8697 93° East 282 325 10,000  Level Chicago Center
Thu 10:52:32 AM 41.7856 -86.7661 93° East 280 322 10,000 48 Level Chicago Center
Thu 10:53:34 AM 41.7814 -86.6536 93° East 284 327 10,100 484 Climbing Chicago Center
Thu 10:54:36 AM 41.7778 -86.5550 93° East 265 305 11,000 919 Climbing Chicago Center
Thu 10:55:38 AM 41.7989 -86.4756 70° East 239 275 12,000 1,161 Climbing Chicago Center
Thu 10:56:40 AM 41.8447 -86.4336 34° Northeast 201 231 13,400 1,258 Climbing Chicago Center
Thu 10:57:42 AM 41.8994 -86.3847 34° Northeast 197 227 14,600 1,016 Climbing Chicago Center
Thu 10:58:44 AM 41.9444 -86.3447 33° Northeast 196 226 15,500 871 Climbing Chicago Center
Thu 10:59:46 AM 41.9875 -86.2961 40° Northeast 203 234 16,400 677 Climbing Chicago Center
Thu 11:00:48 AM 42.0194 -86.2250 59° Northeast 223 257 16,900 290 Climbing Chicago Center
Thu 11:01:50 AM 42.0536 -86.1478 59° Northeast 236 272 17,000 48 Climbing Chicago Center
Thu 11:02:53 AM 42.0931 -86.0644 57° Northeast 257 296 17,000  Level Chicago Center
Thu 11:03:55 AM 42.1319 -85.9817 58° Northeast 262 302 17,000  Level Chicago Center
Thu 11:04:57 AM 42.1756 -85.8889 58° Northeast 261 300 17,000  Level Chicago Center
Thu 11:05:59 AM 42.2142 -85.8047 58° Northeast 264 304 17,000  Level Chicago Center
Thu 11:07:01 AM 42.2533 -85.7203 58° Northeast 267 307 17,000  Level Chicago Center
Thu 11:08:03 AM 42.3006 -85.6167 58° Northeast 271 312 17,000  Level Chicago Center
Thu 11:09:05 AM 42.3383 -85.5322 59° Northeast 266 306 17,000  Level Chicago Center
Thu 11:10:07 AM 42.3778 -85.4500 57° Northeast 263 303 17,000  Level Chicago Center
Thu 11:11:09 AM 42.4153 -85.3644 59° Northeast 265 305 17,000  Level Chicago Center
Thu 11:12:11 AM 42.4542 -85.2803 58° Northeast 264 304 17,000 48 Level Chicago Center
Thu 11:13:13 AM 42.4992 -85.1811 58° Northeast 261 300 17,100  Climbing Chicago Center
Thu 11:14:15 AM 42.5381 -85.0964 58° Northeast 263 303 17,000 -48 Descending Chicago Center
Thu 11:15:17 AM 42.5753 -85.0144 58° Northeast 259 298 17,000  Level Chicago Center
Thu 11:16:19 AM 42.6131 -84.9308 58° Northeast 260 299 17,000 -97 Level Chicago Center
Thu 11:17:21 AM 42.6506 -84.8478 58° Northeast 259 298 16,800 -629 Descending Chicago Center
Thu 11:18:23 AM 42.6903 -84.7586 59° Northeast 272 313 15,700 -1,161 Descending Chicago Center
Thu 11:19:25 AM 42.7222 -84.6311 71° East 298 343 14,400 -1,258 Descending Chicago Center
Thu 11:20:27 AM 42.7153 -84.5150 95° East 307 353 13,100 -1,306 Descending Chicago Center
Thu 11:21:29 AM 42.7142 -84.4003 91° East 305 351 11,700 -1,355 Descending Chicago Center
Thu 11:22:31 AM 42.7128 -84.2886 91° East 300 345 10,300 -1,268 Descending Chicago Center
Thu 11:23:32 AM 42.7103 -84.1833 92° East 285 328 9,100 -1,140 Descending Cleveland Center
Thu 11:24:32 AM 42.7094 -84.0786 91° East 272 313 8,000 -1,150 Descending Cleveland Center
Thu 11:25:32 AM 42.7122 -83.9800 88° East 267 307 6,800 -1,250 Descending Cleveland Center
Thu 11:26:32 AM 42.7172 -83.8869 86° East 238 274 5,500 -729 Descending Cleveland Center
Thu 11:27:52 AM 42.7222 -83.7769 86° East 219 252 5,100 -170 Descending Cleveland Center
Thu 11:28:53 AM 42.7267 -83.6894 86° East 228 262 5,100  Level Cleveland Center
Thu 11:29:53 AM 42.7333 -83.6022 84° East 225 259 5,100 -209 Level Cleveland Center
Thu 11:30:48 AM 42.7372 -83.5261 86° East 218 251 4,700 -931 Descending Cleveland Center
Thu 11:31:49 AM 42.7436 -83.4444 84° East 216 249 3,300 -787 Descending Cleveland Center
Thu 11:32:50 AM 42.7453 -83.3681 88° East 187 215 3,100 -103 Descending Cleveland Center
Thu 11:33:45 AM 42.7492 -83.3003 86° East 197 227 3,100  Level Cleveland Center
Thu 11:34:45 AM 42.7342 -83.2319 107° East 201 231 3,100  Level Cleveland Center
Thu 11:35:46 AM 42.6839 -83.2383 185° South 185 213 3,100 -148 Level Cleveland Center
Thu 11:36:47 AM 42.6700 -83.2997 253° West 180 207 2,800 -590 Descending Cleveland Center
Thu 11:37:48 AM 42.6642 -83.3617 263° West 145 167 1,900 -885 Descending Cleveland Center
Thu 11:39:00 AM 42.6500 -83.4167 226° Southwest  Level FlightAware Approximate
Thu 11:46:00 AM 42.6656 -83.4205 226° Southwest  Level Estimated
Thu 11:47:00 AM 42.6656 -83.4205 226° Southwest  Level Estimated

Login

Don't have an account? Register now (free) for customized features, flight alerts, and more!